createdAt,value
2022-11-16T00:01:27.165Z,18.40
2022-11-16T00:03:55.948Z,19.35
2022-11-16T00:06:23.587Z,25.77
2022-11-16T00:09:12.627Z,22.80
2022-11-16T00:11:39.512Z,20.15
2022-11-16T00:14:06.587Z,20.95
2022-11-16T00:16:33.383Z,25.08
2022-11-16T00:19:02.770Z,20.80
2022-11-16T00:21:30.005Z,18.05
2022-11-16T00:23:56.727Z,20.02
2022-11-16T00:26:24.013Z,17.30
2022-11-16T00:28:51.739Z,18.05
2022-11-16T00:31:18.696Z,19.73
2022-11-16T00:33:45.119Z,21.60
2022-11-16T00:36:13.048Z,19.27
2022-11-16T00:38:40.066Z,20.70
2022-11-16T00:41:06.786Z,18.25
2022-11-16T00:43:34.328Z,22.73
2022-11-16T00:46:00.887Z,17.75
2022-11-16T00:48:27.442Z,20.17
2022-11-16T00:50:54.194Z,21.02
2022-11-16T00:53:21.006Z,18.10
2022-11-16T00:55:48.046Z,22.05
2022-11-16T00:58:15.331Z,15.52
2022-11-16T01:00:42.308Z,15.95
2022-11-16T01:03:08.654Z,16.42
2022-11-16T01:05:35.022Z,16.83
2022-11-16T01:08:01.443Z,20.38
2022-11-16T01:10:28.426Z,16.33
2022-11-16T01:12:55.670Z,17.83
2022-11-16T01:15:23.654Z,15.95
2022-11-16T01:17:50.611Z,26.83
2022-11-16T01:20:19.682Z,19.98
2022-11-16T01:22:46.714Z,16.23
2022-11-16T01:25:14.412Z,16.65
2022-11-16T01:27:42.342Z,14.85
2022-11-16T01:30:10.707Z,16.05
2022-11-16T01:32:37.244Z,16.27
2022-11-16T01:35:04.618Z,16.40
2022-11-16T01:37:31.269Z,20.88
2022-11-16T01:39:57.675Z,15.75
2022-11-16T01:42:26.525Z,19.13
2022-11-16T01:45:15.681Z,19.52
2022-11-16T01:47:42.038Z,16.50
2022-11-16T01:50:16.535Z,22.15
2022-11-16T01:52:48.324Z,14.07
2022-11-16T01:55:14.791Z,17.38
2022-11-16T01:57:43.136Z,19.00
2022-11-16T02:00:11.085Z,16.55
2022-11-16T02:02:37.438Z,15.00
2022-11-16T02:05:04.713Z,17.90
2022-11-16T02:08:13.242Z,14.98
2022-11-16T02:10:48.852Z,22.25
2022-11-16T02:13:30.310Z,16.25
2022-11-16T02:16:24.419Z,17.58
2022-11-16T02:19:03.575Z,15.23
2022-11-16T02:21:38.010Z,16.77
2022-11-16T02:24:34.755Z,18.50
2022-11-16T02:27:28.416Z,20.17
2022-11-16T02:29:55.735Z,20.75
2022-11-16T02:32:32.098Z,15.00
2022-11-16T02:35:06.671Z,19.55
2022-11-16T02:37:36.508Z,15.65
2022-11-16T02:42:38.150Z,15.95
2022-11-16T02:45:06.802Z,17.75
2022-11-16T02:47:34.522Z,15.15
2022-11-16T02:50:08.812Z,20.67
2022-11-16T02:52:36.000Z,16.80
2022-11-16T02:55:02.427Z,17.13
2022-11-16T02:57:34.018Z,16.27
2022-11-16T03:00:00.610Z,15.60
2022-11-16T03:02:42.203Z,19.98
2022-11-16T03:05:31.783Z,18.60
2022-11-16T03:08:06.815Z,19.60
2022-11-16T03:10:55.302Z,20.15
2022-11-16T03:13:24.130Z,15.77
2022-11-16T03:15:50.943Z,18.73
2022-11-16T03:18:18.015Z,20.20
2022-11-16T03:20:44.424Z,17.02
2022-11-16T03:23:11.820Z,18.73
2022-11-16T03:25:49.098Z,19.23
2022-11-16T03:28:21.843Z,16.65
2022-11-16T03:30:59.823Z,16.85
2022-11-16T03:33:30.946Z,18.45
2022-11-16T03:36:10.118Z,21.90
2022-11-16T03:38:37.836Z,23.20
2022-11-16T03:41:07.519Z,17.10
2022-11-16T03:43:34.580Z,28.02
2022-11-16T03:46:01.048Z,23.75
2022-11-16T03:48:38.533Z,17.60
2022-11-16T03:51:05.882Z,19.15
2022-11-16T03:53:32.250Z,20.77
2022-11-16T03:55:58.598Z,20.33
2022-11-16T03:58:24.979Z,18.20
2022-11-16T04:00:51.394Z,20.17
2022-11-16T04:03:17.779Z,21.35
2022-11-16T04:06:02.939Z,21.42
2022-11-16T04:08:47.976Z,18.58
2022-11-16T04:11:51.125Z,20.58
2022-11-16T04:14:40.087Z,23.80
2022-11-16T04:17:30.147Z,24.67
2022-11-16T04:20:14.998Z,19.63
2022-11-16T04:23:09.569Z,21.02
2022-11-16T04:28:16.100Z,23.00
2022-11-16T04:31:03.880Z,23.30
2022-11-16T04:33:49.311Z,20.95
2022-11-16T04:36:34.444Z,18.13
2022-11-16T04:39:00.880Z,17.83
2022-11-16T04:41:45.970Z,20.83
2022-11-16T04:44:12.326Z,25.35
2022-11-16T04:46:57.418Z,17.70
2022-11-16T04:49:23.789Z,17.10
2022-11-16T04:51:50.164Z,18.05
2022-11-16T04:54:16.525Z,24.85
2022-11-16T04:56:42.923Z,20.70
2022-11-16T04:59:09.297Z,15.80
2022-11-16T05:02:04.902Z,16.75
2022-11-16T05:04:31.282Z,16.95
2022-11-16T05:06:57.698Z,16.08
2022-11-16T05:09:24.104Z,15.30
2022-11-16T05:11:50.667Z,17.58
2022-11-16T05:14:17.054Z,13.88
2022-11-16T05:16:43.621Z,21.48
2022-11-16T05:19:28.606Z,19.23
2022-11-16T05:21:54.958Z,16.45
2022-11-16T05:24:33.392Z,14.02
2022-11-16T05:27:11.849Z,17.45
2022-11-16T05:29:38.429Z,19.55
2022-11-16T05:32:05.490Z,17.80
2022-11-16T05:34:31.877Z,14.85
2022-11-16T05:36:58.536Z,20.13
2022-11-16T05:39:25.440Z,15.70
2022-11-16T05:41:52.309Z,15.95
2022-11-16T05:44:18.991Z,23.27
2022-11-16T05:46:45.553Z,18.55
2022-11-16T05:49:13.097Z,17.13
2022-11-16T05:51:40.652Z,17.48
2022-11-16T05:54:07.133Z,17.25
2022-11-16T05:56:34.903Z,18.17
2022-11-16T05:59:01.583Z,19.17
2022-11-16T06:01:27.973Z,16.95
2022-11-16T06:03:54.477Z,19.60
2022-11-16T06:06:20.987Z,18.90
2022-11-16T06:08:47.406Z,22.33
2022-11-16T06:11:13.972Z,22.30
2022-11-16T06:13:40.452Z,18.60
2022-11-16T06:16:07.213Z,16.23
2022-11-16T06:18:37.053Z,18.02
2022-11-16T06:23:29.889Z,15.90
2022-11-16T06:25:56.506Z,20.08
2022-11-16T06:28:23.418Z,23.17
2022-11-16T06:30:49.974Z,19.25
2022-11-16T06:33:16.715Z,20.50
2022-11-16T06:35:43.211Z,24.45
2022-11-16T06:38:09.574Z,23.13
2022-11-16T06:40:37.749Z,17.05
2022-11-16T06:43:04.297Z,18.92
2022-11-16T06:45:30.655Z,23.25
2022-11-16T06:47:57.007Z,22.15
2022-11-16T06:50:23.356Z,21.30
2022-11-16T06:52:49.904Z,23.95
2022-11-16T06:55:16.697Z,28.13
2022-11-16T06:57:43.599Z,27.00
2022-11-16T07:00:11.029Z,21.45
2022-11-16T07:02:38.599Z,19.67
2022-11-16T07:05:06.167Z,19.95
2022-11-16T07:07:33.004Z,20.90
2022-11-16T07:09:59.475Z,22.02
2022-11-16T07:12:26.561Z,21.65
2022-11-16T07:14:53.172Z,25.60
2022-11-16T07:17:19.528Z,25.55
2022-11-16T07:19:45.991Z,18.80
2022-11-16T07:22:12.348Z,21.35
2022-11-16T07:24:38.733Z,23.15
2022-11-16T07:27:05.310Z,20.42
2022-11-16T07:29:31.691Z,16.90
2022-11-16T07:31:58.053Z,24.10
2022-11-16T07:34:24.460Z,21.40
2022-11-16T07:36:50.811Z,23.27
2022-11-16T07:39:17.222Z,20.45
2022-11-16T07:41:44.260Z,23.65
2022-11-16T07:44:12.243Z,20.48
2022-11-16T07:46:47.846Z,25.85
2022-11-16T07:49:16.156Z,19.65
2022-11-16T07:51:42.899Z,18.15
2022-11-16T07:54:12.375Z,18.52
2022-11-16T07:56:38.742Z,18.60
2022-11-16T07:59:05.994Z,18.08
2022-11-16T08:01:33.302Z,18.40
2022-11-16T08:04:01.655Z,12.98
2022-11-16T08:06:29.880Z,15.98
2022-11-16T08:08:58.883Z,13.52
2022-11-16T08:11:26.014Z,15.20
2022-11-16T08:13:52.438Z,10.50
2022-11-16T08:16:21.115Z,19.35
2022-11-16T08:18:47.832Z,11.10
2022-11-16T08:21:15.524Z,10.63
2022-11-16T08:23:42.159Z,16.23
2022-11-16T08:26:16.775Z,11.90
2022-11-16T08:28:44.666Z,14.00
2022-11-16T08:31:18.859Z,16.55
2022-11-16T08:33:45.540Z,10.43
2022-11-16T08:36:17.083Z,10.57
2022-11-16T08:38:48.167Z,8.57
2022-11-16T08:41:15.574Z,8.40
2022-11-16T08:43:42.488Z,10.40
2022-11-16T08:46:10.368Z,8.50
2022-11-16T08:48:37.672Z,12.98
2022-11-16T08:51:20.752Z,11.20
2022-11-16T08:53:48.896Z,8.07
2022-11-16T08:56:17.073Z,10.55
2022-11-16T08:58:44.261Z,9.02
2022-11-16T09:01:18.973Z,10.35
2022-11-16T09:03:45.553Z,6.95
2022-11-16T09:06:12.613Z,6.90
2022-11-16T09:08:40.736Z,12.73
2022-11-16T09:11:09.101Z,9.65
2022-11-16T09:13:35.478Z,8.52
2022-11-16T09:16:02.115Z,9.65
2022-11-16T09:18:29.392Z,12.10
2022-11-16T09:20:56.020Z,9.75
2022-11-16T09:23:25.595Z,7.40
2022-11-16T09:25:52.749Z,13.68
2022-11-16T09:28:19.562Z,10.57
2022-11-16T09:30:47.009Z,11.13
2022-11-16T09:33:13.457Z,12.57
2022-11-16T09:35:40.116Z,12.90
2022-11-16T09:38:06.671Z,8.38
2022-11-16T09:40:35.745Z,7.07
2022-11-16T09:43:42.566Z,10.55
2022-11-16T09:46:17.787Z,11.45
2022-11-16T09:48:44.450Z,8.88
2022-11-16T09:51:14.495Z,8.02
2022-11-16T09:54:02.715Z,10.88
2022-11-16T09:56:31.644Z,10.52
2022-11-16T09:59:18.087Z,10.65
2022-11-16T10:01:59.839Z,7.97
2022-11-16T10:04:29.126Z,10.90
2022-11-16T10:07:15.175Z,9.65
2022-11-16T10:09:42.424Z,10.40
2022-11-16T10:12:27.112Z,9.85
2022-11-16T10:15:01.273Z,11.48
2022-11-16T10:17:37.222Z,9.38
2022-11-16T10:20:06.478Z,7.35
2022-11-16T10:23:04.668Z,8.43
2022-11-16T10:25:44.855Z,7.72
2022-11-16T10:28:32.467Z,9.40
2022-11-16T10:31:17.260Z,5.97
2022-11-16T10:33:44.931Z,7.72
2022-11-16T10:36:14.271Z,7.32
2022-11-16T10:38:42.054Z,13.70
2022-11-16T10:41:24.507Z,8.18
2022-11-16T10:43:50.866Z,5.90
2022-11-16T10:46:21.619Z,8.80
2022-11-16T10:48:56.102Z,5.30
2022-11-16T10:51:22.689Z,10.10
2022-11-16T10:53:49.501Z,5.60
2022-11-16T10:56:21.222Z,9.30
2022-11-16T10:58:54.924Z,6.95
2022-11-16T11:01:32.254Z,7.82
2022-11-16T11:04:22.679Z,6.38
2022-11-16T11:06:53.112Z,6.38
2022-11-16T11:09:28.860Z,6.15
2022-11-16T11:12:18.744Z,9.20
2022-11-16T11:15:25.534Z,7.55
2022-11-16T11:18:20.323Z,6.53
2022-11-16T11:20:50.214Z,7.10
2022-11-16T11:23:25.489Z,7.38
2022-11-16T11:25:57.087Z,7.75
2022-11-16T11:28:31.656Z,6.85
2022-11-16T11:31:07.379Z,9.13
2022-11-16T11:33:36.455Z,7.18
2022-11-16T11:36:07.774Z,6.35
2022-11-16T11:38:35.166Z,8.57
2022-11-16T11:41:05.011Z,6.95
2022-11-16T11:46:07.214Z,9.93
2022-11-16T11:48:47.693Z,10.43
2022-11-16T11:51:21.179Z,9.38
2022-11-16T11:53:53.426Z,6.38
2022-11-16T11:56:20.063Z,7.75
2022-11-16T11:58:47.259Z,7.45
2022-11-16T12:01:35.589Z,12.32
2022-11-16T12:04:08.012Z,9.50
2022-11-16T12:06:43.768Z,7.80
2022-11-16T12:09:47.592Z,8.45
2022-11-16T12:12:36.026Z,8.10
2022-11-16T12:17:42.220Z,6.00
2022-11-16T12:20:27.282Z,8.18
2022-11-16T12:23:04.343Z,7.72
2022-11-16T12:25:44.498Z,11.55
2022-11-16T12:28:23.307Z,8.57
2022-11-16T12:31:01.805Z,6.18
2022-11-16T12:33:45.475Z,8.27
2022-11-16T12:36:23.703Z,6.57
2022-11-16T12:39:24.802Z,7.57
2022-11-16T12:42:06.999Z,6.43
2022-11-16T12:47:49.448Z,7.70
2022-11-16T12:53:06.546Z,7.60
2022-11-16T12:55:59.071Z,6.88
2022-11-16T12:58:39.738Z,5.78
2022-11-16T13:01:30.809Z,8.82
2022-11-16T13:04:01.642Z,5.30
2022-11-16T13:06:32.556Z,6.40
2022-11-16T13:09:25.602Z,7.38
2022-11-16T13:12:01.645Z,5.68
2022-11-16T13:16:57.451Z,9.48
2022-11-16T13:19:24.238Z,14.00
2022-11-16T13:22:02.667Z,9.07
2022-11-16T13:24:44.374Z,6.40
2022-11-16T13:27:41.551Z,5.03
2022-11-16T13:30:19.510Z,5.82
2022-11-16T13:33:18.864Z,6.78
2022-11-16T13:35:45.323Z,7.05
2022-11-16T13:38:13.270Z,5.95
2022-11-16T13:40:40.140Z,5.40
2022-11-16T13:43:09.512Z,4.68
2022-11-16T13:45:42.692Z,6.88
2022-11-16T13:48:25.178Z,5.40
2022-11-16T13:50:56.865Z,8.10
2022-11-16T13:54:32.636Z,9.43
2022-11-16T13:56:16.290Z,6.97
2022-11-16T13:58:49.097Z,6.93
2022-11-16T14:01:16.253Z,5.43
2022-11-16T14:03:46.841Z,6.63
2022-11-16T14:06:13.099Z,4.22
2022-11-16T14:08:39.375Z,6.10
2022-11-16T14:11:28.390Z,9.85
2022-11-16T14:13:54.911Z,5.55
2022-11-16T14:16:21.534Z,6.25
2022-11-16T14:18:59.109Z,5.15
2022-11-16T14:21:33.114Z,5.45
2022-11-16T14:24:21.271Z,6.95
2022-11-16T14:27:09.468Z,5.28
2022-11-16T14:30:11.253Z,5.40
2022-11-16T14:32:44.674Z,9.63
2022-11-16T14:35:26.113Z,5.88
2022-11-16T14:38:01.033Z,8.25
2022-11-16T14:40:27.615Z,5.38
2022-11-16T14:43:17.208Z,6.68
2022-11-16T14:45:47.511Z,7.60
2022-11-16T14:48:21.813Z,7.38
2022-11-16T14:51:11.552Z,8.82
2022-11-16T14:53:42.039Z,7.78
2022-11-16T14:56:14.034Z,7.03
2022-11-16T14:58:44.056Z,5.65
2022-11-16T15:01:14.008Z,5.85
2022-11-16T15:03:54.184Z,7.45
2022-11-16T15:06:21.366Z,8.38
2022-11-16T15:09:02.989Z,5.82
2022-11-16T15:11:59.059Z,7.15
2022-11-16T15:14:28.275Z,7.82
2022-11-16T15:16:56.610Z,9.20
2022-11-16T15:19:23.953Z,5.47
2022-11-16T15:21:55.138Z,8.45
2022-11-16T15:24:31.772Z,6.10
2022-11-16T15:27:25.821Z,8.45
2022-11-16T15:29:52.267Z,7.57
2022-11-16T15:32:18.768Z,6.97
2022-11-16T15:34:51.767Z,9.57
2022-11-16T15:37:29.791Z,6.90
2022-11-16T15:39:58.100Z,8.43
2022-11-16T15:42:25.790Z,6.55
2022-11-16T15:44:52.378Z,6.47
2022-11-16T15:47:19.404Z,9.15
2022-11-16T15:49:49.505Z,7.20
2022-11-16T15:52:42.575Z,7.57
2022-11-16T15:55:23.828Z,9.05
2022-11-16T15:58:18.475Z,13.43
2022-11-16T16:00:47.548Z,6.38
2022-11-16T16:03:27.583Z,8.27
2022-11-16T16:05:54.903Z,6.80
2022-11-16T16:08:28.594Z,10.13
2022-11-16T16:10:59.357Z,8.52
2022-11-16T16:13:29.366Z,9.68
2022-11-16T16:18:44.692Z,9.30
2022-11-16T16:21:12.604Z,12.63
2022-11-16T16:23:53.757Z,6.65
2022-11-16T16:26:20.640Z,9.43
2022-11-16T16:28:47.537Z,12.60
2022-11-16T16:31:14.602Z,8.98
2022-11-16T16:33:41.156Z,8.43
2022-11-16T16:36:08.002Z,11.05
2022-11-16T16:38:34.368Z,9.82
2022-11-16T16:41:02.600Z,10.10
2022-11-16T16:43:29.710Z,9.88
2022-11-16T16:45:56.528Z,10.95
2022-11-16T16:48:22.919Z,11.52
2022-11-16T16:50:49.308Z,9.52
2022-11-16T16:53:15.700Z,9.95
2022-11-16T16:55:43.156Z,10.93
2022-11-16T16:58:13.441Z,11.25
2022-11-16T17:00:40.818Z,10.20
2022-11-16T17:03:07.217Z,10.52
2022-11-16T17:05:33.973Z,10.27
2022-11-16T17:08:00.833Z,13.60
2022-11-16T17:10:27.209Z,10.77
2022-11-16T17:12:54.433Z,14.02
2022-11-16T17:15:21.870Z,11.15
2022-11-16T17:17:48.256Z,12.40
2022-11-16T17:20:16.080Z,8.27
2022-11-16T17:22:43.435Z,10.02
2022-11-16T17:25:10.523Z,10.65
2022-11-16T17:27:36.880Z,13.98
2022-11-16T17:30:04.219Z,11.48
2022-11-16T17:32:30.617Z,10.30
2022-11-16T17:34:56.975Z,8.93
2022-11-16T17:37:23.358Z,9.85
2022-11-16T17:39:49.736Z,12.38
2022-11-16T17:42:16.116Z,10.75
2022-11-16T17:44:42.498Z,9.07
2022-11-16T17:47:09.299Z,9.88
2022-11-16T17:49:35.671Z,8.30
2022-11-16T17:52:02.204Z,14.60
2022-11-16T17:54:28.577Z,11.13
2022-11-16T17:56:55.035Z,14.48
2022-11-16T17:59:26.432Z,10.48
2022-11-16T18:01:55.475Z,10.30
2022-11-16T18:04:21.845Z,10.38
2022-11-16T18:06:48.348Z,11.10
2022-11-16T18:09:14.738Z,12.00
2022-11-16T18:11:41.543Z,13.18
2022-11-16T18:14:08.019Z,12.48
2022-11-16T18:16:34.570Z,8.75
2022-11-16T18:19:03.416Z,9.98
2022-11-16T18:21:30.066Z,9.68
2022-11-16T18:23:58.796Z,10.27
2022-11-16T18:26:25.481Z,10.68
2022-11-16T18:28:52.532Z,8.48
2022-11-16T18:31:21.171Z,10.60
2022-11-16T18:33:49.156Z,7.95
2022-11-16T18:36:15.877Z,10.10
2022-11-16T18:38:42.285Z,8.27
2022-11-16T18:41:11.551Z,9.15
2022-11-16T18:43:38.799Z,11.00
2022-11-16T18:46:05.495Z,10.93
2022-11-16T18:48:32.208Z,8.60
2022-11-16T18:51:03.343Z,8.32
2022-11-16T18:53:30.849Z,8.25
2022-11-16T18:55:58.274Z,12.60
2022-11-16T18:58:49.248Z,8.70
2022-11-16T19:01:14.388Z,7.03
2022-11-16T19:03:41.067Z,7.97
2022-11-16T19:06:08.721Z,8.35
2022-11-16T19:08:36.231Z,9.57
2022-11-16T19:11:14.057Z,9.48
2022-11-16T19:13:41.609Z,8.95
2022-11-16T19:16:09.573Z,8.73
2022-11-16T19:18:36.501Z,9.40
2022-11-16T19:21:07.568Z,9.45
2022-11-16T19:23:38.741Z,11.15
2022-11-16T19:26:05.740Z,8.98
2022-11-16T19:28:39.740Z,8.90
2022-11-16T19:31:18.239Z,8.95
2022-11-16T19:33:45.373Z,8.50
2022-11-16T19:36:13.404Z,7.07
2022-11-16T19:38:39.811Z,6.18
2022-11-16T19:41:07.083Z,10.32
2022-11-16T19:43:34.427Z,8.77
2022-11-16T19:46:12.180Z,7.00
2022-11-16T19:48:38.630Z,7.18
2022-11-16T19:51:05.850Z,8.18
2022-11-16T19:53:32.766Z,9.02
2022-11-16T19:55:59.485Z,8.15
2022-11-16T19:58:25.907Z,8.30
2022-11-16T20:00:52.324Z,9.25
2022-11-16T20:03:18.703Z,9.25
2022-11-16T20:05:45.058Z,7.70
2022-11-16T20:08:11.455Z,9.98
2022-11-16T20:10:37.980Z,8.15
2022-11-16T20:13:04.387Z,6.88
2022-11-16T20:15:30.795Z,8.35
2022-11-16T20:17:57.160Z,8.40
2022-11-16T20:20:23.513Z,6.75
2022-11-16T20:22:50.721Z,5.38
2022-11-16T20:25:17.766Z,8.52
2022-11-16T20:27:44.157Z,6.40
2022-11-16T20:30:11.091Z,6.50
2022-11-16T20:32:37.451Z,5.30
2022-11-16T20:35:03.935Z,6.68
2022-11-16T20:37:30.288Z,7.88
2022-11-16T20:39:57.142Z,7.15
2022-11-16T20:42:23.931Z,6.93
2022-11-16T20:44:50.306Z,7.78
2022-11-16T20:47:16.684Z,5.82
2022-11-16T20:49:43.071Z,5.53
2022-11-16T20:52:09.461Z,8.48
2022-11-16T20:54:35.891Z,6.05
2022-11-16T20:57:02.337Z,5.38
2022-11-16T20:59:28.704Z,6.20
2022-11-16T21:01:55.182Z,3.40
2022-11-16T21:04:21.908Z,6.20
2022-11-16T21:06:48.314Z,6.78
2022-11-16T21:09:22.481Z,8.40
2022-11-16T21:12:07.502Z,5.10
2022-11-16T21:14:33.932Z,6.22
2022-11-16T21:17:00.290Z,5.22
2022-11-16T21:19:26.663Z,7.50
2022-11-16T21:21:53.017Z,6.45
2022-11-16T21:24:19.372Z,5.40
2022-11-16T21:26:45.729Z,4.57
2022-11-16T21:29:12.143Z,7.70
2022-11-16T21:31:38.514Z,6.57
2022-11-16T21:34:05.766Z,5.50
2022-11-16T21:36:32.306Z,6.80
2022-11-16T21:38:59.047Z,5.35
2022-11-16T21:41:25.863Z,5.70
2022-11-16T21:43:52.297Z,6.60
2022-11-16T21:46:24.681Z,5.47
2022-11-16T21:48:52.656Z,7.20
2022-11-16T21:51:20.454Z,7.03
2022-11-16T21:53:47.333Z,6.28
2022-11-16T21:56:15.345Z,9.50
2022-11-16T21:58:42.122Z,6.95
2022-11-16T22:01:09.328Z,7.53
2022-11-16T22:03:36.023Z,6.25
2022-11-16T22:06:22.795Z,7.35
2022-11-16T22:08:49.204Z,4.80
2022-11-16T22:11:16.060Z,4.82
2022-11-16T22:13:42.826Z,7.72
2022-11-16T22:16:12.532Z,5.95
2022-11-16T22:18:39.441Z,7.25
2022-11-16T22:21:05.921Z,5.97
2022-11-16T22:23:32.831Z,7.82
2022-11-16T22:26:07.246Z,8.52
2022-11-16T22:28:34.520Z,8.43
2022-11-16T22:31:06.031Z,7.70
2022-11-16T22:33:33.191Z,7.60
2022-11-16T22:35:59.860Z,8.02
2022-11-16T22:38:26.311Z,8.40
2022-11-16T22:40:54.782Z,4.20
2022-11-16T22:43:22.669Z,6.55
2022-11-16T22:45:49.171Z,7.90
2022-11-16T22:48:15.793Z,6.65
2022-11-16T22:50:42.526Z,8.57
2022-11-16T22:53:09.865Z,7.97
2022-11-16T22:55:37.751Z,6.20
2022-11-16T22:58:04.631Z,7.13
2022-11-16T23:00:31.199Z,6.88
2022-11-16T23:02:57.744Z,6.68
2022-11-16T23:05:24.343Z,7.07
2022-11-16T23:07:50.703Z,5.82
2022-11-16T23:10:17.907Z,9.82
2022-11-16T23:13:02.869Z,7.18
2022-11-16T23:15:47.900Z,5.88
2022-11-16T23:18:14.459Z,5.75
2022-11-16T23:20:59.642Z,9.00
2022-11-16T23:23:44.736Z,7.57
2022-11-16T23:26:47.772Z,10.25
2022-11-16T23:29:14.144Z,6.35
2022-11-16T23:31:40.487Z,7.40
2022-11-16T23:34:06.843Z,7.50
2022-11-16T23:36:33.198Z,8.80
2022-11-16T23:38:59.566Z,12.57
2022-11-16T23:41:44.671Z,6.95
2022-11-16T23:44:11.096Z,8.20
2022-11-16T23:46:37.451Z,8.48
2022-11-16T23:49:03.812Z,9.70
2022-11-16T23:51:30.185Z,5.93
2022-11-16T23:53:56.606Z,6.80
2022-11-16T23:56:23.262Z,7.70
2022-11-16T23:58:49.696Z,6.03
